Time;durP1;ratioP1;P1;durP2;ratioP2;P2;SDS_P1;SDS_P2;PMS_P1;PMS_P2;Temp;Humidity;BMP_temperature;BMP_pressure;BME280_temperature;BME280_humidity;BME280_pressure;Samples;Min_cycle;Max_cycle;Signal;HPM_P1;HPM_P2
2023/08/25 00:00:33;;;;;;;4.05;3.75;;;19.70;1.00;;;;;;5053665;28;20680;-76
2023/08/25 00:02:58;;;;;;;5.60;3.83;;;19.60;99.90;;;;;;5035373;28;20183;-75
2023/08/25 00:05:24;;;;;;;4.22;3.83;;;19.50;99.90;;;;;;5052929;28;20170;-74
2023/08/25 00:07:50;;;;;;;4.65;3.60;;;19.50;1.00;;;;;;5053252;28;20220;-75
2023/08/25 00:10:16;;;;;;;4.22;3.83;;;19.50;1.00;;;;;;5053580;28;20528;-75
2023/08/25 00:12:41;;;;;;;4.93;3.92;;;19.50;1.00;;;;;;5053267;28;20170;-76
2023/08/25 00:15:08;;;;;;;6.15;4.18;;;19.40;1.00;;;;;;5034824;28;20205;-75
2023/08/25 00:17:34;;;;;;;5.68;3.65;;;19.40;26.40;;;;;;5053525;28;20259;-75
2023/08/25 00:20:00;;;;;;;5.28;4.10;;;19.30;1.00;;;;;;5054043;28;20174;-74
2023/08/25 00:22:27;;;;;;;6.35;4.43;;;19.30;1.00;;;;;;5053314;28;20628;-74
2023/08/25 00:24:55;;;;;;;4.63;4.22;;;19.20;99.90;;;;;;5034971;28;20204;-75
2023/08/25 00:27:21;;;;;;;4.32;3.70;;;19.20;99.90;;;;;;5055971;28;20561;-75
2023/08/25 00:29:47;;;;;;;6.75;4.75;;;19.20;1.00;;;;;;5057160;28;20193;-74
2023/08/25 00:32:13;;;;;;;4.28;3.88;;;19.20;1.00;;;;;;5057229;28;20170;-76
2023/08/25 00:34:39;;;;;;;5.43;4.50;;;19.10;99.90;;;;;;5057153;28;20239;-74
2023/08/25 00:37:05;;;;;;;4.20;3.90;;;19.10;99.90;;;;;;5039095;28;20178;-76
2023/08/25 00:39:31;;;;;;;4.30;3.90;;;19.10;99.90;;;;;;5057257;28;20181;-75
2023/08/25 00:41:56;;;;;;;5.78;4.28;;;19.00;70.20;;;;;;5057219;28;20179;-75
2023/08/25 00:44:22;;;;;;;4.43;4.03;;;19.00;1.00;;;;;;5057088;28;20554;-74
2023/08/25 00:46:49;;;;;;;5.43;3.90;;;18.90;1.00;;;;;;5056486;28;20205;-75
2023/08/25 00:49:15;;;;;;;4.40;4.03;;;18.90;32.70;;;;;;5056988;28;20171;-75
2023/08/25 00:51:40;;;;;;;5.07;4.57;;;19.00;1.00;;;;;;5039259;28;20180;-74
2023/08/25 00:54:07;;;;;;;4.50;4.10;;;19.00;99.90;;;;;;5056585;28;20190;-75
2023/08/25 00:56:33;;;;;;;5.10;4.60;;;18.90;99.90;;;;;;5056304;28;20174;-75
2023/08/25 00:58:59;;;;;;;4.78;4.38;;;18.90;99.90;;;;;;5056708;28;20193;-74
2023/08/25 01:01:25;;;;;;;5.57;4.30;;;19.00;99.90;;;;;;5056917;28;20676;-74
2023/08/25 01:03:52;;;;;;;4.38;3.95;;;18.90;99.90;;;;;;5038569;28;20202;-75
2023/08/25 01:06:17;;;;;;;5.25;4.75;;;18.90;99.90;;;;;;5056056;28;20190;-76
2023/08/25 01:08:43;;;;;;;5.07;4.53;;;18.90;99.90;;;;;;5056681;28;20249;-75
2023/08/25 01:11:35;;;;;;;4.93;4.30;;;19.00;99.90;;;;;;5038946;28;20178;-75
2023/08/25 01:14:04;;;;;;;5.95;4.43;;;19.00;1.00;;;;;;5038735;28;20218;-74
2023/08/25 01:16:35;;;;;;;7.38;4.47;;;19.00;1.00;;;;;;5037926;28;20181;-75
2023/08/25 01:19:03;;;;;;;5.38;4.65;;;19.00;1.00;;;;;;5056608;28;20228;-74
2023/08/25 01:21:30;;;;;;;4.75;4.28;;;19.00;1.00;;;;;;5038734;28;20178;-74
2023/08/25 01:24:25;;;;;;;4.95;4.40;;;18.90;1.00;;;;;;5038504;28;20201;-74
2023/08/25 01:26:51;;;;;;;5.00;4.47;;;18.90;1.00;;;;;;5055710;28;20534;-75
2023/08/25 01:29:17;;;;;;;4.72;4.20;;;18.80;1.00;;;;;;5056294;28;20190;-75
2023/08/25 01:31:42;;;;;;;4.70;4.30;;;18.70;99.90;;;;;;5056279;28;20201;-74
2023/08/25 01:34:08;;;;;;;4.90;4.50;;;18.70;99.90;;;;;;5038094;28;20657;-75
2023/08/25 01:36:55;;;;;;;5.90;3.97;;;18.70;99.90;;;;;;5055669;28;20182;-75
2023/08/25 01:39:23;;;;;;;5.68;4.35;;;18.70;99.90;;;;;;5056335;28;20178;-75
2023/08/25 01:42:02;;;;;;;6.40;5.05;;;18.80;99.90;;;;;;5062477;22;20234;-81
2023/08/25 01:44:29;;;;;;;5.05;4.50;;;18.80;1.00;;;;;;5034965;28;20645;-81
2023/08/25 01:47:01;;;;;;;5.00;4.55;;;18.80;1.00;;;;;;5016983;28;20314;-81
2023/08/25 01:49:28;;;;;;;5.32;4.13;;;18.80;55.80;;;;;;5017285;28;20597;-81
2023/08/25 01:51:55;;;;;;;5.07;4.15;;;18.80;15.50;;;;;;5035060;28;20175;-81
2023/08/25 01:54:20;;;;;;;4.20;3.80;;;18.90;1.00;;;;;;5034912;28;20232;-84
2023/08/25 01:56:46;;;;;;;4.20;3.85;;;18.90;1.00;;;;;;5017034;28;20281;-84
2023/08/25 01:59:12;;;;;;;6.20;3.90;;;19.00;1.00;;;;;;5035155;28;20199;-81
2023/08/25 02:01:37;;;;;;;4.47;4.07;;;18.90;1.00;;;;;;5017022;28;20636;-81
2023/08/25 02:04:03;;;;;;;6.75;4.00;;;18.90;1.00;;;;;;5017035;28;20598;-81
2023/08/25 02:06:28;;;;;;;4.85;4.00;;;18.80;61.30;;;;;;5016656;28;20206;-81
2023/08/25 02:08:54;;;;;;;5.00;4.57;;;18.90;99.90;;;;;;5016771;28;20557;-81
2023/08/25 02:11:20;;;;;;;4.85;4.18;;;19.00;99.90;;;;;;5034687;28;20178;-81
2023/08/25 02:13:45;;;;;;;4.90;4.00;;;18.90;99.90;;;;;;5016498;28;20748;-81
2023/08/25 02:16:12;;;;;;;4.00;3.60;;;19.00;99.90;;;;;;5034240;28;20248;-81
2023/08/25 02:18:37;;;;;;;4.85;3.75;;;19.00;99.90;;;;;;5016311;28;20198;-81
2023/08/25 02:21:03;;;;;;;3.75;3.38;;;19.10;1.00;;;;;;5016088;28;20198;-81
2023/08/25 02:23:28;;;;;;;4.03;3.63;;;19.10;1.00;;;;;;5016412;28;20698;-81
2023/08/25 02:25:54;;;;;;;4.03;3.72;;;19.10;1.00;;;;;;5016238;28;20207;-81
2023/08/25 02:28:20;;;;;;;4.65;3.70;;;19.10;1.00;;;;;;5016502;28;20669;-81
2023/08/25 02:30:45;;;;;;;4.35;3.95;;;19.10;1.00;;;;;;5034350;28;20171;-80
2023/08/25 02:33:12;;;;;;;5.20;4.00;;;19.10;94.00;;;;;;5016197;28;20325;-82
2023/08/25 02:35:38;;;;;;;4.53;3.75;;;19.00;99.90;;;;;;5033938;28;20478;-81
2023/08/25 02:38:06;;;;;;;5.47;3.92;;;19.00;99.90;;;;;;5033924;28;20560;-81
2023/08/25 02:40:33;;;;;;;5.57;3.42;;;19.10;99.90;;;;;;5016024;28;20688;-81
2023/08/25 02:43:00;;;;;;;4.18;3.78;;;19.10;99.90;;;;;;5016075;28;20274;-81
2023/08/25 02:45:26;;;;;;;6.97;4.10;;;19.10;99.90;;;;;;5016118;28;20244;-81
2023/08/25 02:47:53;;;;;;;5.20;3.90;;;19.10;99.90;;;;;;5033973;28;20195;-82
2023/08/25 02:50:20;;;;;;;4.32;3.92;;;19.10;99.90;;;;;;5015237;28;20179;-81
2023/08/25 02:52:46;;;;;;;3.95;3.55;;;19.00;99.90;;;;;;5015720;28;20732;-82
2023/08/25 02:55:16;;;;;;;4.47;3.60;;;19.00;99.90;;;;;;5015780;28;20210;-81
2023/08/25 02:57:42;;;;;;;5.15;3.97;;;19.00;99.90;;;;;;5033389;28;20163;-81
2023/08/25 03:00:09;;;;;;;4.25;3.78;;;18.90;99.90;;;;;;5016195;28;20659;-81
2023/08/25 03:02:35;;;;;;;3.47;3.17;;;18.80;1.00;;;;;;5015746;28;20660;-81
2023/08/25 03:05:00;;;;;;;3.38;3.08;;;18.90;99.90;;;;;;5015510;28;20209;-82
2023/08/25 03:07:26;;;;;;;4.53;3.60;;;18.90;1.00;;;;;;5015492;28;20681;-81
2023/08/25 03:09:52;;;;;;;4.32;3.92;;;18.90;99.90;;;;;;5033223;28;20199;-81
2023/08/25 03:12:17;;;;;;;4.80;3.85;;;18.90;99.90;;;;;;5033278;28;20182;-82
2023/08/25 03:14:43;;;;;;;4.70;3.70;;;18.80;18.40;;;;;;5033042;28;20175;-81
2023/08/25 03:17:09;;;;;;;5.45;3.60;;;18.70;98.60;;;;;;5015489;28;20178;-81
2023/08/25 03:19:37;;;;;;;4.43;3.97;;;18.60;99.90;;;;;;5015296;28;20206;-82
2023/08/25 03:22:03;;;;;;;4.25;3.95;;;18.50;1.00;;;;;;5015275;28;20183;-81
2023/08/25 03:24:28;;;;;;;6.38;4.07;;;18.50;1.00;;;;;;5015260;28;20178;-81
2023/08/25 03:26:56;;;;;;;5.43;4.15;;;18.40;1.00;;;;;;5014921;28;20433;-81
2023/08/25 03:29:22;;;;;;;4.18;3.78;;;18.40;1.00;;;;;;5015490;28;20211;-81
2023/08/25 03:31:47;;;;;;;4.80;3.85;;;18.40;99.90;;;;;;5015244;28;20183;-81
2023/08/25 03:34:13;;;;;;;5.13;3.63;;;18.40;99.90;;;;;;5014934;28;20175;-81
2023/08/25 03:36:38;;;;;;;5.05;3.67;;;18.40;1.00;;;;;;5032691;28;20186;-81
2023/08/25 03:39:04;;;;;;;4.40;4.00;;;18.30;1.00;;;;;;5015107;28;20621;-81
2023/08/25 03:41:30;;;;;;;3.67;3.30;;;18.30;40.80;;;;;;5032565;28;20637;-81
2023/08/25 03:43:56;;;;;;;5.13;3.92;;;18.30;1.00;;;;;;5032660;28;20198;-81
2023/08/25 03:46:22;;;;;;;4.30;3.90;;;18.30;1.00;;;;;;5032115;28;20194;-81
2023/08/25 03:48:47;;;;;;;4.07;3.67;;;18.30;1.00;;;;;;5014751;28;20602;-81
2023/08/25 03:51:13;;;;;;;4.03;3.70;;;18.30;1.00;;;;;;5014801;28;20592;-81
2023/08/25 03:53:38;;;;;;;4.22;3.83;;;17.90;1.00;;;;;;5014433;28;20185;-81
2023/08/25 03:56:04;;;;;;;5.57;4.00;;;18.30;99.90;;;;;;5014586;28;20655;-81
2023/08/25 03:58:30;;;;;;;5.82;3.97;;;18.30;99.90;;;;;;5032337;28;20336;-81
2023/08/25 04:00:56;;;;;;;4.90;3.78;;;18.30;99.90;;;;;;5032147;28;20262;-81
2023/08/25 04:03:22;;;;;;;3.85;3.50;;;18.30;99.90;;;;;;5014298;28;20186;-81
2023/08/25 04:05:48;;;;;;;4.10;3.67;;;18.30;99.90;;;;;;5014321;28;20207;-81
2023/08/25 04:08:13;;;;;;;4.57;3.75;;;18.30;99.90;;;;;;5032003;28;20202;-81
2023/08/25 04:10:43;;;;;;;5.45;4.00;;;18.30;99.90;;;;;;5031964;28;20242;-81
2023/08/25 04:13:09;;;;;;;6.00;4.43;;;18.40;88.40;;;;;;5014155;28;20209;-81
2023/08/25 04:15:36;;;;;;;4.85;3.70;;;18.40;99.90;;;;;;5013990;28;20270;-81
2023/08/25 04:18:02;;;;;;;4.60;3.88;;;18.40;99.90;;;;;;5031804;28;20618;-82
2023/08/25 04:20:27;;;;;;;4.47;3.58;;;18.30;99.90;;;;;;5031884;28;20175;-82
2023/08/25 04:22:53;;;;;;;5.25;3.80;;;18.10;1.00;;;;;;5014117;28;20175;-81
2023/08/25 04:25:18;;;;;;;4.15;3.75;;;17.90;25.30;;;;;;5014140;28;20171;-82
2023/08/25 04:27:44;;;;;;;3.95;3.55;;;17.90;99.90;;;;;;5032652;28;20171;-81
2023/08/25 04:30:10;;;;;;;3.88;3.45;;;17.80;99.90;;;;;;5014767;28;20186;-81
2023/08/25 04:32:36;;;;;;;4.72;3.90;;;17.80;1.00;;;;;;5032257;28;20233;-81
2023/08/25 04:35:03;;;;;;;4.55;3.63;;;17.80;1.00;;;;;;5032503;28;20261;-81
2023/08/25 04:37:29;;;;;;;9.40;4.32;;;17.90;99.90;;;;;;5032149;28;20719;-81
2023/08/25 04:39:55;;;;;;;6.55;4.25;;;18.00;99.90;;;;;;5014585;28;20186;-81
2023/08/25 04:42:22;;;;;;;5.90;4.20;;;18.10;1.00;;;;;;5014858;28;20224;-81
2023/08/25 04:44:48;;;;;;;6.30;3.65;;;18.20;1.00;;;;;;5014250;28;20649;-81
2023/08/25 04:47:15;;;;;;;3.90;3.30;;;18.30;1.00;;;;;;5014387;28;20207;-81
2023/08/25 04:49:41;;;;;;;6.00;3.50;;;18.30;1.00;;;;;;5014440;28;20622;-81
2023/08/25 04:52:07;;;;;;;4.10;3.28;;;18.40;99.90;;;;;;5032255;28;20176;-80
2023/08/25 04:54:32;;;;;;;4.55;3.47;;;18.50;46.80;;;;;;5014401;28;20171;-81
2023/08/25 04:56:58;;;;;;;4.38;3.47;;;18.60;1.00;;;;;;5014171;28;20225;-80
2023/08/25 04:59:24;;;;;;;4.43;3.60;;;18.70;1.00;;;;;;5031813;28;20594;-81
2023/08/25 05:01:49;;;;;;;3.90;3.50;;;18.60;1.00;;;;;;5014219;28;20186;-81
2023/08/25 05:04:15;;;;;;;4.43;3.33;;;18.60;1.00;;;;;;5014562;28;20194;-81
2023/08/25 05:06:40;;;;;;;3.50;3.20;;;18.50;1.00;;;;;;5032350;28;20213;-81
2023/08/25 05:09:06;;;;;;;4.70;3.70;;;18.40;1.00;;;;;;5014313;28;20191;-81
2023/08/25 05:11:34;;;;;;;7.00;3.60;;;18.40;1.00;;;;;;5031951;28;20687;-81
2023/08/25 05:13:59;;;;;;;3.30;3.00;;;18.50;1.00;;;;;;5017292;28;20183;-81
2023/08/25 05:16:25;;;;;;;4.93;3.78;;;18.60;1.00;;;;;;5017360;28;20252;-81
2023/08/25 05:18:50;;;;;;;3.67;3.30;;;18.80;1.00;;;;;;5035415;28;20241;-81
2023/08/25 05:21:16;;;;;;;4.93;3.22;;;18.90;99.90;;;;;;5017668;28;20276;-82
2023/08/25 05:23:46;;;;;;;3.28;3.00;;;19.00;99.90;;;;;;5035504;28;20237;-81
2023/08/25 05:26:13;;;;;;;3.60;3.30;;;19.10;1.00;;;;;;5017211;28;20237;-81
2023/08/25 05:28:39;;;;;;;3.78;3.10;;;19.30;1.00;;;;;;5035277;28;20202;-81
2023/08/25 05:31:04;;;;;;;3.22;2.83;;;19.40;1.00;;;;;;5035550;28;20175;-81
2023/08/25 05:33:30;;;;;;;3.38;2.65;;;19.40;1.00;;;;;;5017293;28;20179;-81
2023/08/25 05:35:55;;;;;;;3.63;2.92;;;19.50;1.00;;;;;;5017314;28;20664;-81
2023/08/25 05:38:21;;;;;;;3.45;3.15;;;19.60;1.00;;;;;;5017550;28;20281;-81
2023/08/25 05:40:47;;;;;;;5.10;3.53;;;19.70;1.00;;;;;;5017620;28;20194;-81
2023/08/25 05:43:12;;;;;;;3.97;2.72;;;19.70;1.00;;;;;;5017216;28;20182;-81
2023/08/25 05:45:38;;;;;;;3.55;3.17;;;19.90;99.90;;;;;;5034756;28;20171;-81
2023/08/25 05:48:04;;;;;;;6.38;3.10;;;20.00;99.90;;;;;;5017342;28;20730;-81
2023/08/25 05:50:30;;;;;;;3.50;3.20;;;20.10;99.90;;;;;;5035158;28;20444;-81
2023/08/25 05:52:55;;;;;;;3.88;3.58;;;20.20;99.90;;;;;;5017373;28;20217;-81
2023/08/25 05:55:21;;;;;;;4.82;3.25;;;20.30;99.90;;;;;;5034907;28;20258;-82
2023/08/25 05:57:46;;;;;;;7.40;3.65;;;20.40;99.90;;;;;;5034641;28;20554;-82
2023/08/25 06:00:13;;;;;;;6.00;3.47;;;20.50;99.90;;;;;;5034595;28;20258;-81
2023/08/25 06:02:39;;;;;;;4.95;3.45;;;20.60;99.90;;;;;;5016837;28;20650;-82
2023/08/25 06:05:05;;;;;;;4.97;3.60;;;20.70;99.90;;;;;;5034567;28;20253;-81
2023/08/25 06:07:30;;;;;;;6.85;3.83;;;20.80;99.90;;;;;;5016840;28;20298;-82
2023/08/25 06:09:56;;;;;;;4.55;3.33;;;20.90;99.90;;;;;;5034633;28;20305;-82
2023/08/25 06:12:22;;;;;;;5.55;3.55;;;21.00;82.60;;;;;;5034299;28;20179;-81
2023/08/25 06:14:47;;;;;;;6.65;3.90;;;21.10;38.70;;;;;;5016410;28;20618;-82
2023/08/25 06:17:13;;;;;;;5.55;3.13;;;21.10;8.70;;;;;;5016986;28;20189;-81
2023/08/25 06:19:38;;;;;;;6.45;3.75;;;21.30;1.00;;;;;;5034318;28;20229;-81
2023/08/25 06:22:04;;;;;;;5.22;3.40;;;21.30;1.00;;;;;;5016622;28;20183;-81
2023/08/25 06:24:30;;;;;;;6.60;3.80;;;21.40;1.00;;;;;;5032949;28;20202;-82
2023/08/25 06:26:55;;;;;;;4.68;3.60;;;21.60;1.00;;;;;;5016101;28;20218;-82
2023/08/25 06:29:21;;;;;;;3.92;2.90;;;22.30;1.00;;;;;;5034214;28;20744;-82
2023/08/25 06:31:47;;;;;;;5.05;3.00;;;23.00;1.00;;;;;;5016770;28;20236;-82
2023/08/25 06:34:12;;;;;;;5.78;3.13;;;23.60;1.00;;;;;;5016054;28;20179;-82
2023/08/25 06:36:38;;;;;;;6.20;3.08;;;24.60;99.90;;;;;;5016112;28;20182;-80
2023/08/25 06:39:03;;;;;;;6.07;3.10;;;26.10;99.90;;;;;;5016245;28;20203;-82
2023/08/25 06:41:29;;;;;;;6.55;3.20;;;27.70;38.40;;;;;;5015871;28;20198;-82
2023/08/25 06:43:57;;;;;;;4.75;3.13;;;28.90;1.00;;;;;;5015685;28;20182;-82
2023/08/25 06:46:23;;;;;;;7.20;3.45;;;29.50;1.00;;;;;;5033625;28;20293;-81
2023/08/25 06:48:50;;;;;;;7.75;3.28;;;30.10;1.00;;;;;;5015756;28;20215;-82
2023/08/25 06:51:15;;;;;;;4.47;3.00;;;30.70;1.00;;;;;;5033554;28;20555;-81
2023/08/25 06:53:41;;;;;;;3.70;2.78;;;31.40;1.00;;;;;;5033334;28;20174;-82
2023/08/25 06:56:07;;;;;;;3.85;2.92;;;31.80;1.00;;;;;;5033050;28;20185;-82
2023/08/25 06:58:32;;;;;;;4.25;2.70;;;32.40;1.00;;;;;;5033204;28;20205;-82
2023/08/25 07:00:58;;;;;;;4.90;3.45;;;32.80;1.00;;;;;;5015659;28;20232;-82
2023/08/25 07:03:24;;;;;;;3.10;2.70;;;32.40;1.00;;;;;;5033042;28;20171;-82
2023/08/25 07:05:55;;;;;;;4.00;2.50;;;32.70;1.00;;;;;;5015071;28;20207;-82
2023/08/25 07:08:21;;;;;;;4.78;3.03;;;33.00;1.00;;;;;;5033097;28;20210;-82
2023/08/25 07:10:46;;;;;;;9.18;3.50;;;32.60;1.00;;;;;;5033015;28;20163;-82
2023/08/25 07:13:12;;;;;;;9.15;3.67;;;31.00;1.00;;;;;;5032869;28;20591;-82
2023/08/25 07:15:37;;;;;;;6.70;3.70;;;29.10;1.00;;;;;;5032663;28;20204;-82
2023/08/25 07:18:03;;;;;;;7.28;3.63;;;28.00;1.00;;;;;;5015369;28;20198;-81
2023/08/25 07:20:29;;;;;;;6.65;3.55;;;27.10;1.00;;;;;;5015484;28;20183;-82
2023/08/25 07:22:54;;;;;;;3.97;3.20;;;26.30;1.00;;;;;;5032725;28;20591;-81
2023/08/25 07:25:20;;;;;;;4.82;3.83;;;25.70;1.00;;;;;;5032597;28;20178;-81
2023/08/25 07:27:46;;;;;;;6.18;3.80;;;25.30;1.00;;;;;;5014924;28;20632;-80
2023/08/25 07:30:11;;;;;;;3.60;3.30;;;25.00;1.00;;;;;;5015054;28;20178;-80
2023/08/25 07:32:37;;;;;;;4.10;3.60;;;24.70;1.00;;;;;;5032371;28;20199;-81
2023/08/25 07:35:04;;;;;;;6.00;3.45;;;24.60;1.00;;;;;;5014279;28;20261;-81
2023/08/25 07:37:29;;;;;;;7.80;3.50;;;24.60;1.00;;;;;;5014729;28;20683;-81
2023/08/25 07:39:55;;;;;;;4.03;3.17;;;24.60;1.00;;;;;;5032618;28;20186;-81
2023/08/25 07:42:22;;;;;;;10.95;4.07;;;24.50;1.00;;;;;;5033601;28;20179;-82
2023/08/25 07:44:49;;;;;;;4.97;3.60;;;24.60;1.00;;;;;;5015068;28;20193;-81
2023/08/25 07:47:14;;;;;;;4.40;3.03;;;24.50;1.00;;;;;;5033008;28;20208;-81
2023/08/25 07:49:40;;;;;;;3.75;3.03;;;24.60;1.00;;;;;;5015635;28;20478;-81
2023/08/25 07:52:06;;;;;;;5.90;3.78;;;24.80;1.00;;;;;;5015802;28;20175;-81
2023/08/25 07:54:31;;;;;;;5.18;3.72;;;24.90;1.00;;;;;;5015202;28;20170;-81
2023/08/25 07:56:58;;;;;;;4.53;3.45;;;25.00;1.00;;;;;;5014788;28;20179;-81
2023/08/25 07:59:24;;;;;;;4.68;3.33;;;24.90;1.00;;;;;;5015296;28;20198;-81
2023/08/25 08:01:52;;;;;;;7.70;3.80;;;24.90;1.00;;;;;;5014998;28;20546;-81
2023/08/25 08:04:18;;;;;;;7.55;4.05;;;25.00;1.00;;;;;;5032930;28;20671;-81
2023/08/25 08:06:44;;;;;;;5.35;3.58;;;25.00;1.00;;;;;;5032875;28;20203;-81
2023/08/25 08:09:09;;;;;;;6.82;3.95;;;24.80;1.00;;;;;;5014748;28;20225;-81
2023/08/25 08:11:35;;;;;;;6.30;3.70;;;24.80;1.00;;;;;;5014582;28;20182;-81
2023/08/25 08:14:01;;;;;;;6.93;3.75;;;24.80;1.00;;;;;;5014690;28;20179;-83
2023/08/25 08:16:26;;;;;;;9.20;3.85;;;24.70;1.00;;;;;;5014529;28;20233;-81
2023/08/25 08:18:52;;;;;;;6.18;3.97;;;24.70;1.00;;;;;;5014652;28;20253;-81
2023/08/25 08:21:18;;;;;;;7.07;4.35;;;24.70;1.00;;;;;;5014949;28;20544;-81
2023/08/25 08:23:44;;;;;;;9.95;4.22;;;24.80;1.00;;;;;;5032570;28;20187;-81
2023/08/25 08:26:10;;;;;;;5.10;3.75;;;24.80;1.00;;;;;;5032542;28;20210;-81
2023/08/25 08:28:35;;;;;;;4.93;3.70;;;24.90;1.00;;;;;;5032848;28;20638;-81
2023/08/25 08:31:05;;;;;;;5.75;3.78;;;25.00;1.00;;;;;;5014595;28;20213;-83
2023/08/25 08:33:31;;;;;;;5.63;4.07;;;25.10;1.00;;;;;;5014596;28;20202;-82
2023/08/25 08:35:57;;;;;;;4.15;3.35;;;25.10;1.00;;;;;;5014337;28;20183;-81
2023/08/25 08:38:23;;;;;;;6.57;4.10;;;25.10;1.00;;;;;;5032103;28;20341;-81
2023/08/25 08:40:49;;;;;;;6.40;4.20;;;25.20;1.00;;;;;;5032397;28;20198;-81
2023/08/25 08:43:17;;;;;;;5.78;3.50;;;25.10;1.00;;;;;;5032378;28;20206;-81
2023/08/25 08:45:44;;;;;;;5.88;3.60;;;25.20;1.00;;;;;;5014585;28;20691;-81
2023/08/25 08:48:12;;;;;;;6.05;3.83;;;25.20;1.00;;;;;;5035244;28;20198;-81
2023/08/25 08:50:38;;;;;;;6.85;4.03;;;25.40;1.00;;;;;;5036557;28;20175;-81
2023/08/25 08:53:05;;;;;;;4.95;3.17;;;25.50;1.00;;;;;;5018147;28;20182;-82
2023/08/25 08:55:33;;;;;;;6.57;3.50;;;25.70;1.00;;;;;;5018248;28;20262;-83
2023/08/25 08:57:58;;;;;;;6.20;3.22;;;25.70;1.00;;;;;;5018099;28;20249;-81
2023/08/25 09:00:24;;;;;;;5.15;3.47;;;25.70;1.00;;;;;;5035955;28;20168;-81
2023/08/25 09:02:53;;;;;;;4.45;3.17;;;25.80;1.00;;;;;;5018323;28;20181;-81
2023/08/25 09:05:30;;;;;;;5.22;3.35;;;25.90;1.00;;;;;;5035972;28;20178;-81
2023/08/25 09:08:08;;;;;;;6.43;3.50;;;26.20;1.00;;;;;;5017910;28;20209;-81
2023/08/25 09:10:33;;;;;;;4.90;3.33;;;26.40;1.00;;;;;;5036140;28;20182;-81
2023/08/25 09:12:59;;;;;;;6.28;3.33;;;26.40;1.00;;;;;;5020018;28;20171;-81
2023/08/25 09:15:26;;;;;;;5.85;3.63;;;26.40;1.00;;;;;;5018266;28;20544;-81
2023/08/25 09:18:03;;;;;;;4.45;3.50;;;26.50;1.00;;;;;;5017891;28;20758;-81
2023/08/25 09:20:33;;;;;;;3.83;3.42;;;26.50;1.00;;;;;;5035672;28;20182;-82
2023/08/25 09:23:00;;;;;;;5.43;3.50;;;26.50;1.00;;;;;;5018174;28;20188;-81
2023/08/25 09:25:26;;;;;;;3.75;3.38;;;26.60;1.00;;;;;;5035819;28;20593;-81
2023/08/25 09:28:10;;;;;;;5.07;3.70;;;26.40;1.00;;;;;;5035966;28;20238;-84
2023/08/25 09:30:38;;;;;;;4.03;3.28;;;26.30;1.00;;;;;;5040106;28;20230;-84
2023/08/25 09:33:13;;;;;;;4.07;3.10;;;26.30;1.00;;;;;;5019124;28;20266;-81
2023/08/25 09:35:39;;;;;;;4.22;2.47;;;26.20;1.00;;;;;;5017509;28;20182;-81
2023/08/25 09:38:06;;;;;;;3.85;2.58;;;26.10;1.00;;;;;;5017450;28;20772;-81
2023/08/25 09:40:31;;;;;;;2.97;2.22;;;26.00;1.00;;;;;;5034883;28;20657;-83
2023/08/25 09:43:02;;;;;;;3.80;2.42;;;26.10;1.00;;;;;;5017008;28;20197;-81
2023/08/25 09:45:29;;;;;;;4.88;2.78;;;26.00;1.00;;;;;;5017057;28;20178;-81
2023/08/25 09:48:11;;;;;;;4.50;2.75;;;26.00;1.00;;;;;;5034838;28;20202;-81
2023/08/25 09:50:42;;;;;;;3.20;2.63;;;26.00;1.00;;;;;;5035038;28;20174;-81
2023/08/25 09:53:09;;;;;;;3.92;2.70;;;26.00;1.00;;;;;;5016697;28;20598;-81
2023/08/25 09:55:36;;;;;;;3.13;2.80;;;25.80;1.00;;;;;;5034695;28;20204;-81
2023/08/25 09:58:07;;;;;;;4.03;2.63;;;25.80;1.00;;;;;;5016686;28;20209;-81
2023/08/25 10:00:34;;;;;;;22.33;3.75;;;25.80;1.00;;;;;;5034827;28;20173;-81
2023/08/25 10:03:01;;;;;;;14.35;3.80;;;25.90;1.00;;;;;;5034363;28;20171;-81
2023/08/25 10:05:29;;;;;;;12.15;3.17;;;26.10;1.00;;;;;;5016384;28;20212;-82
2023/08/25 10:07:55;;;;;;;18.63;3.97;;;26.30;1.00;;;;;;5033914;28;20293;-81
2023/08/25 10:10:22;;;;;;;8.85;3.08;;;26.50;1.00;;;;;;5034348;28;20182;-81
2023/08/25 10:12:49;;;;;;;4.50;3.03;;;26.60;1.00;;;;;;5033853;28;20193;-81
2023/08/25 10:15:17;;;;;;;4.50;3.08;;;26.70;1.00;;;;;;5016095;28;20179;-82
2023/08/25 10:17:45;;;;;;;7.68;2.90;;;26.90;1.00;;;;;;5015876;28;20209;-82
2023/08/25 10:20:15;;;;;;;8.25;3.88;;;27.00;1.00;;;;;;5015969;28;20183;-82
2023/08/25 10:22:46;;;;;;;6.50;3.28;;;27.00;1.00;;;;;;5034044;28;20193;-82
2023/08/25 10:25:13;;;;;;;7.93;3.25;;;27.00;1.00;;;;;;5016627;28;20235;-81
2023/08/25 10:27:40;;;;;;;5.32;3.05;;;26.80;1.00;;;;;;5034352;28;20194;-81
2023/08/25 10:30:06;;;;;;;7.68;3.05;;;26.60;1.00;;;;;;5017057;28;20182;-81
2023/08/25 10:32:55;;;;;;;6.45;2.83;;;26.50;1.00;;;;;;5034285;28;20174;-82
2023/08/25 10:35:47;;;;;;;5.85;3.08;;;26.20;1.00;;;;;;5018711;28;20182;-83
2023/08/25 10:38:18;;;;;;;7.32;3.70;;;25.90;1.00;;;;;;5020230;28;20194;-84
2023/08/25 10:40:54;;;;;;;5.50;3.47;;;25.60;1.00;;;;;;5020549;28;20189;-82
2023/08/25 10:43:50;;;;;;;8.40;3.20;;;25.40;1.00;;;;;;5036507;28;20163;-82
2023/08/25 10:46:19;;;;;;;11.18;3.60;;;25.10;1.00;;;;;;5032481;28;20243;-83
2023/08/25 10:48:48;;;;;;;10.18;3.70;;;25.00;1.00;;;;;;5016342;28;20199;-82
2023/08/25 10:51:20;;;;;;;11.30;3.65;;;24.90;1.00;;;;;;5034244;28;20225;-81
2023/08/25 10:53:51;;;;;;;11.40;4.20;;;24.70;1.00;;;;;;5034113;28;20217;-81
2023/08/25 10:56:22;;;;;;;6.75;4.00;;;24.50;26.10;;;;;;5016482;28;20249;-82
2023/08/25 10:59:05;;;;;;;6.57;3.78;;;24.40;28.60;;;;;;5034257;28;20191;-82
2023/08/25 11:01:54;;;;;;;4.45;3.72;;;24.20;60.30;;;;;;5016631;28;20202;-81
2023/08/25 11:04:25;;;;;;;5.07;3.50;;;24.20;42.60;;;;;;5017014;28;20198;-83
2023/08/25 11:06:53;;;;;;;9.50;3.88;;;24.30;90.70;;;;;;5033738;28;20257;-81
2023/08/25 11:09:26;;;;;;;10.95;4.43;;;24.40;85.80;;;;;;5015917;28;20230;-83
2023/08/25 11:12:03;;;;;;;9.35;4.60;;;24.50;88.70;;;;;;5016519;28;20270;-82
2023/08/25 11:14:36;;;;;;;10.88;4.43;;;24.60;88.90;;;;;;5016016;28;20716;-81
2023/08/25 11:17:04;;;;;;;9.05;5.00;;;24.50;93.50;;;;;;5016110;28;20652;-81
2023/08/25 11:19:32;;;;;;;9.82;5.45;;;24.30;99.90;;;;;;5016264;28;20203;-81
2023/08/25 11:22:05;;;;;;;11.25;4.78;;;24.20;99.90;;;;;;5015801;28;20175;-81
2023/08/25 11:24:31;;;;;;;8.13;4.80;;;23.90;99.90;;;;;;5016787;28;20602;-83
2023/08/25 11:27:05;;;;;;;8.27;5.50;;;23.60;99.90;;;;;;5015471;28;20332;-81
2023/08/25 11:29:31;;;;;;;7.40;5.93;;;23.40;1.00;;;;;;5041220;22;20230;-73
2023/08/25 11:31:57;;;;;;;9.10;5.35;;;23.20;1.00;;;;;;5034073;28;20178;-73
2023/08/25 11:34:22;;;;;;;7.05;5.43;;;22.90;99.90;;;;;;5033712;28;20665;-73
2023/08/25 11:36:48;;;;;;;7.35;5.72;;;22.70;1.00;;;;;;5033299;28;20541;-73
2023/08/25 11:39:20;;;;;;;6.30;5.55;;;22.50;99.90;;;;;;5033853;28;20174;-73
2023/08/25 11:41:46;;;;;;;11.23;6.43;;;22.40;99.90;;;;;;5033967;28;20181;-73
2023/08/25 11:44:13;;;;;;;9.98;7.13;;;22.30;1.00;;;;;;5033649;28;20194;-73
2023/08/25 11:46:39;;;;;;;11.73;7.05;;;22.10;99.90;;;;;;5033025;28;20340;-73
2023/08/25 11:49:09;;;;;;;10.93;7.32;;;22.10;61.60;;;;;;5033523;28;20163;-74
2023/08/25 11:51:38;;;;;;;7.82;7.10;;;22.00;99.90;;;;;;5033737;28;20183;-74
2023/08/25 11:54:07;;;;;;;8.15;7.00;;;22.00;26.10;;;;;;5033330;28;20198;-75
2023/08/25 11:56:33;;;;;;;8.95;6.63;;;21.90;1.00;;;;;;5015333;28;20632;-74
2023/08/25 11:58:58;;;;;;;11.82;7.65;;;21.80;99.90;;;;;;5033668;28;20248;-74
2023/08/25 12:01:31;;;;;;;7.45;6.78;;;21.80;99.90;;;;;;5033698;28;20175;-75
2023/08/25 12:03:58;;;;;;;12.55;9.13;;;21.70;99.50;;;;;;5033370;28;20281;-74
2023/08/25 12:06:25;;;;;;;8.43;7.70;;;21.70;1.00;;;;;;5015483;28;20225;-73
2023/08/25 12:08:50;;;;;;;9.80;8.40;;;21.50;1.00;;;;;;5033556;28;20151;-72
2023/08/25 12:11:16;;;;;;;8.45;7.63;;;21.50;99.90;;;;;;5033282;28;20185;-74
2023/08/25 12:13:44;;;;;;;9.07;8.27;;;21.50;1.00;;;;;;5033172;28;20190;-73
2023/08/25 12:16:13;;;;;;;9.45;8.55;;;21.40;99.90;;;;;;5032782;28;20182;-73
2023/08/25 12:18:41;;;;;;;9.15;8.20;;;21.30;99.90;;;;;;5033394;28;20185;-73
2023/08/25 12:21:07;;;;;;;9.75;8.25;;;21.30;99.90;;;;;;5033257;28;20215;-75
2023/08/25 12:23:38;;;;;;;10.63;9.13;;;21.20;99.90;;;;;;5036399;28;20269;-75
2023/08/25 12:26:06;;;;;;;10.32;9.32;;;21.20;1.00;;;;;;5036822;28;20210;-75
2023/08/25 12:28:35;;;;;;;9.07;8.27;;;21.20;99.90;;;;;;5037485;28;20553;-74
2023/08/25 12:31:01;;;;;;;9.43;8.52;;;21.20;1.00;;;;;;5037327;28;20629;-74
2023/08/25 12:33:28;;;;;;;11.18;8.60;;;21.20;1.00;;;;;;5037040;28;20195;-74
2023/08/25 12:35:54;;;;;;;8.68;7.88;;;21.20;1.00;;;;;;5036613;28;20186;-73
2023/08/25 12:38:20;;;;;;;8.68;7.75;;;21.20;99.90;;;;;;5037186;28;20206;-74
2023/08/25 12:40:46;;;;;;;8.63;7.93;;;21.30;22.80;;;;;;5037218;28;20175;-73
2023/08/25 12:43:12;;;;;;;9.20;8.27;;;21.30;1.00;;;;;;5036864;28;20225;-74
2023/08/25 12:45:38;;;;;;;9.50;8.70;;;21.20;1.00;;;;;;5018843;28;20262;-74
2023/08/25 12:48:04;;;;;;;8.20;7.40;;;21.20;1.00;;;;;;5036969;28;20619;-73
2023/08/25 12:50:30;;;;;;;9.18;8.32;;;21.10;99.90;;;;;;5036968;28;20627;-74
2023/08/25 12:52:55;;;;;;;9.50;8.38;;;21.20;99.90;;;;;;5036711;28;20580;-73